Главная страница
METAR-TAF:

METAR-TAF

Аэропорты :

Сённерборг, Дания

широта: 54-58N, долгота: 009-47E, высота над уровнем моря: 7 м

Текущие метеонаблюдения

Эта сводка был подготовлена 35 минут назад, в 09:50 UTC
Ветер 14 Узел от северо-западный
Температура 7°C
Влажность 70%
Давление 1022 hPa
Видимость 10 км и более
Отдельные облака на высоте 3000 фута
Рассеянная облачность на высоте 4000 фута
небольшой дождь

METAR: EKSB 260950Z 32014KT 9999 -RA SCT030 BKN040 07/02 Q1022

Время: 11:25 (10:25 UTC)

Прогноз

Эта сводка был подготовлена 1 час и 25 минут назад, в 09:00 UTC
Прогноз действительный с 26-го 09 UTC до 26-го 18 UTC
Ветер 15 Узел от северо-западный
Видимость 10 км и более
Рассеянная облачность на высоте 3000 фута
временами
С 26-го 09 UTC до 26-го 11 UTC
Ветер 15 Узел от северо-западный с порывами до 25 Узел

TAF: EKSB 260900Z 2609/2618 31015KT 9999 BKN030 TEMPO 2609/2611 31015G25KT

Метеонаблюдения и прогнозы для более 4000 аэропортов (сводки METAR и TAF).

Имеющиеся станции представлены на карте желтыми и красными точками.

Чтобы увидеть название станции, наведите на нее мышь.

Затем щелкните, чтобы увидеть метеонаблюдения и метеопрогнозы.

Управление картой: чтобы увеличить масштаб, щелкните зеленые кнопки с черным крестиком; чтобы уменьшить масштаб, щелкните зеленую кнопку с тире; для просмотра соседних карт щелкайте зеленые стрелки.


METAR-TAF: